createdAt,value
2023-05-15T00:00:52.028Z,85.52
2023-05-15T00:03:19.966Z,85.79
2023-05-15T00:05:49.361Z,86.15
2023-05-15T00:08:17.396Z,86.63
2023-05-15T00:10:54.118Z,86.57
2023-05-15T00:13:28.446Z,86.76
2023-05-15T00:15:56.322Z,87.03
2023-05-15T00:18:24.327Z,86.74
2023-05-15T00:20:53.770Z,86.82
2023-05-15T00:23:21.662Z,86.65
2023-05-15T00:25:49.461Z,86.88
2023-05-15T00:28:17.448Z,86.20
2023-05-15T00:30:45.387Z,86.16
2023-05-15T00:33:13.513Z,86.40
2023-05-15T00:35:41.399Z,86.29
2023-05-15T00:38:10.797Z,86.30
2023-05-15T00:40:39.606Z,86.22
2023-05-15T00:43:07.720Z,86.66
2023-05-15T00:45:41.630Z,86.86
2023-05-15T00:48:11.152Z,87.72
2023-05-15T00:50:41.416Z,87.40
2023-05-15T00:53:11.958Z,87.14
2023-05-15T00:55:41.613Z,87.79
2023-05-15T00:58:12.155Z,88.60
2023-05-15T01:00:40.547Z,89.09
2023-05-15T01:03:09.501Z,89.13
2023-05-15T01:05:37.800Z,89.52
2023-05-15T01:08:18.619Z,89.80
2023-05-15T01:10:48.995Z,89.48
2023-05-15T01:13:17.745Z,89.52
2023-05-15T01:15:45.963Z,89.86
2023-05-15T01:18:14.042Z,89.74
2023-05-15T01:20:55.142Z,90.37
2023-05-15T01:23:34.990Z,90.38
2023-05-15T01:26:31.493Z,89.91
2023-05-15T01:29:05.838Z,89.68
2023-05-15T01:31:36.202Z,89.88
2023-05-15T01:34:08.022Z,90.05
2023-05-15T01:36:40.347Z,90.45
2023-05-15T01:39:09.556Z,90.11
2023-05-15T01:41:43.697Z,89.60
2023-05-15T01:44:17.992Z,89.91
2023-05-15T01:46:50.660Z,89.58
2023-05-15T01:49:24.764Z,89.92
2023-05-15T01:51:59.321Z,90.14
2023-05-15T01:54:29.713Z,90.34
2023-05-15T01:56:58.637Z,90.38
2023-05-15T01:59:28.754Z,90.45
2023-05-15T02:01:58.027Z,90.00
2023-05-15T02:04:27.251Z,90.17
2023-05-15T02:06:56.202Z,89.91
2023-05-15T02:09:25.820Z,90.54
2023-05-15T02:11:54.759Z,90.21
2023-05-15T02:14:23.673Z,90.00
2023-05-15T02:16:53.082Z,90.21
2023-05-15T02:19:21.050Z,90.34
2023-05-15T02:21:49.087Z,90.53
2023-05-15T02:24:17.005Z,89.79
2023-05-15T02:26:54.410Z,89.83
2023-05-15T02:29:32.635Z,89.92
2023-05-15T02:32:15.554Z,90.09
2023-05-15T02:34:53.434Z,90.53
2023-05-15T02:37:28.206Z,90.21
2023-05-15T02:39:59.735Z,89.78
2023-05-15T02:42:30.424Z,88.65
2023-05-15T02:44:59.135Z,88.76
2023-05-15T02:47:30.769Z,88.88
2023-05-15T02:49:58.992Z,89.03
2023-05-15T02:52:26.914Z,89.54
2023-05-15T02:54:54.797Z,90.15
2023-05-15T02:57:22.688Z,90.61
2023-05-15T02:59:50.763Z,91.26
2023-05-15T03:02:18.668Z,91.39
2023-05-15T03:04:48.341Z,90.97
2023-05-15T03:07:16.630Z,91.21
2023-05-15T03:09:44.640Z,90.51
2023-05-15T03:12:12.890Z,90.48
2023-05-15T03:14:40.818Z,90.49
2023-05-15T03:17:09.053Z,90.05
2023-05-15T03:19:37.024Z,90.58
2023-05-15T03:22:06.341Z,90.38
2023-05-15T03:24:34.450Z,90.11
2023-05-15T03:27:02.360Z,89.99
2023-05-15T03:29:30.411Z,89.67
2023-05-15T03:31:58.429Z,90.14
2023-05-15T03:34:26.413Z,89.86
2023-05-15T03:36:54.318Z,90.34
2023-05-15T03:39:23.554Z,90.24
2023-05-15T03:41:51.608Z,90.53
2023-05-15T03:44:19.492Z,90.94
2023-05-15T03:46:48.117Z,90.92
2023-05-15T03:49:16.091Z,91.26
2023-05-15T03:51:44.043Z,91.38
2023-05-15T03:54:11.946Z,92.31
2023-05-15T03:56:41.366Z,91.80
2023-05-15T03:59:10.077Z,91.56
2023-05-15T04:01:47.562Z,91.51
2023-05-15T04:04:19.120Z,91.38
2023-05-15T04:06:46.993Z,91.81
2023-05-15T04:09:14.872Z,91.90
2023-05-15T04:11:46.722Z,91.31
2023-05-15T04:14:14.914Z,91.88
2023-05-15T04:16:42.834Z,91.88
2023-05-15T04:19:11.355Z,92.21
2023-05-15T04:21:39.291Z,92.03
2023-05-15T04:24:09.091Z,91.87
2023-05-15T04:26:38.011Z,92.93
2023-05-15T04:29:07.415Z,92.16
2023-05-15T04:31:35.529Z,92.37
2023-05-15T04:34:04.388Z,92.23
2023-05-15T04:36:32.879Z,92.44
2023-05-15T04:39:00.827Z,92.09
2023-05-15T04:41:28.680Z,91.93
2023-05-15T04:43:56.569Z,91.75
2023-05-15T04:46:25.979Z,92.03
2023-05-15T04:48:53.938Z,92.69
2023-05-15T04:51:21.741Z,92.64
2023-05-15T04:53:49.611Z,92.14
2023-05-15T04:56:17.473Z,92.04
2023-05-15T04:58:45.411Z,91.90
2023-05-15T05:01:13.242Z,92.00
2023-05-15T05:03:42.828Z,92.34
2023-05-15T05:06:11.221Z,92.18
2023-05-15T05:08:39.106Z,92.18
2023-05-15T05:11:06.972Z,92.31
2023-05-15T05:13:34.876Z,92.20
2023-05-15T05:16:03.012Z,92.27
2023-05-15T05:18:31.323Z,91.50
2023-05-15T05:21:04.216Z,91.70
2023-05-15T05:23:32.375Z,91.76
2023-05-15T05:26:00.318Z,92.10
2023-05-15T05:28:28.291Z,91.48
2023-05-15T05:30:56.125Z,91.13
2023-05-15T05:33:24.014Z,90.78
2023-05-15T05:35:52.642Z,91.36
2023-05-15T05:38:21.925Z,91.13
2023-05-15T05:40:50.947Z,90.90
2023-05-15T05:43:18.924Z,90.62
2023-05-15T05:45:46.989Z,90.24
2023-05-15T05:48:14.956Z,89.63
2023-05-15T05:50:42.786Z,89.07
2023-05-15T05:53:10.835Z,89.32
2023-05-15T05:55:40.076Z,88.92
2023-05-15T05:58:14.777Z,88.64
2023-05-15T06:00:52.373Z,88.00
2023-05-15T06:03:20.628Z,88.04
2023-05-15T06:05:48.745Z,87.69
2023-05-15T06:08:16.611Z,87.70
2023-05-15T06:10:45.980Z,87.86
2023-05-15T06:13:14.851Z,87.36
2023-05-15T06:15:43.034Z,87.82
2023-05-15T06:18:11.231Z,87.87
2023-05-15T06:20:39.220Z,87.31
2023-05-15T06:23:07.140Z,87.31
2023-05-15T06:25:35.071Z,86.76
2023-05-15T06:28:04.305Z,87.22
2023-05-15T06:30:32.456Z,87.13
2023-05-15T06:33:00.757Z,87.15
2023-05-15T06:35:28.858Z,86.69
2023-05-15T06:37:58.431Z,86.35
2023-05-15T06:40:26.915Z,85.92
2023-05-15T06:42:54.936Z,85.67
2023-05-15T06:45:24.516Z,85.72
2023-05-15T06:47:52.607Z,85.77
2023-05-15T06:50:20.806Z,85.70
2023-05-15T06:52:48.753Z,85.58
2023-05-15T06:55:16.592Z,85.47
2023-05-15T06:57:44.419Z,85.71
2023-05-15T07:00:13.643Z,85.62
2023-05-15T07:02:43.728Z,85.51
2023-05-15T07:05:12.339Z,85.79
2023-05-15T07:07:40.341Z,85.87
2023-05-15T07:10:09.791Z,86.13
2023-05-15T07:12:37.649Z,85.76
2023-05-15T07:15:06.507Z,85.49
2023-05-15T07:17:35.136Z,85.70
2023-05-15T07:20:06.088Z,85.29
2023-05-15T07:22:38.747Z,85.50
2023-05-15T07:25:14.561Z,86.18
2023-05-15T07:27:43.454Z,85.97
2023-05-15T07:30:12.246Z,85.92
2023-05-15T07:32:40.370Z,86.04
2023-05-15T07:35:11.499Z,85.75
2023-05-15T07:37:39.912Z,85.19
2023-05-15T07:40:08.908Z,85.09
2023-05-15T07:42:36.817Z,85.53
2023-05-15T07:45:05.198Z,85.03
2023-05-15T07:47:33.167Z,84.56
2023-05-15T07:50:01.088Z,83.42
2023-05-15T07:52:30.602Z,82.77
2023-05-15T07:54:58.409Z,82.19
2023-05-15T07:57:26.456Z,82.62
2023-05-15T07:59:54.357Z,82.17
2023-05-15T08:02:22.309Z,82.83
2023-05-15T08:04:50.385Z,83.14
2023-05-15T08:07:18.334Z,83.32
2023-05-15T08:09:47.599Z,83.21
2023-05-15T08:12:20.628Z,83.38
2023-05-15T08:14:50.281Z,82.43
2023-05-15T08:17:19.105Z,81.30
2023-05-15T08:19:47.027Z,80.50
2023-05-15T08:22:15.330Z,79.61
2023-05-15T08:24:44.095Z,78.75
2023-05-15T08:27:13.396Z,77.92
2023-05-15T08:29:41.526Z,77.70
2023-05-15T08:32:10.158Z,78.00
2023-05-15T08:34:38.634Z,77.29
2023-05-15T08:37:07.375Z,77.76
2023-05-15T08:39:35.312Z,77.89
2023-05-15T08:42:09.726Z,78.20
2023-05-15T08:44:39.747Z,78.90
2023-05-15T08:47:08.374Z,78.80
2023-05-15T08:49:46.041Z,79.14
2023-05-15T08:52:14.315Z,79.55
2023-05-15T08:54:42.222Z,79.38
2023-05-15T08:57:10.993Z,79.43
2023-05-15T08:59:40.308Z,79.79
2023-05-15T09:02:08.771Z,79.38
2023-05-15T09:04:36.681Z,79.47
2023-05-15T09:07:04.893Z,79.17
2023-05-15T09:09:34.135Z,78.98
2023-05-15T09:12:02.604Z,78.35
2023-05-15T09:14:30.935Z,78.18
2023-05-15T09:17:00.470Z,77.63
2023-05-15T09:19:29.030Z,77.02
2023-05-15T09:22:16.871Z,75.91
2023-05-15T09:24:48.123Z,75.40
2023-05-15T09:27:16.348Z,74.91
2023-05-15T09:29:44.272Z,74.43
2023-05-15T09:32:15.866Z,74.22
2023-05-15T09:34:45.828Z,73.65
2023-05-15T09:37:29.417Z,74.01
2023-05-15T09:39:57.750Z,74.34
2023-05-15T09:42:25.876Z,74.48
2023-05-15T09:44:53.748Z,74.38
2023-05-15T09:47:23.481Z,73.83
2023-05-15T09:49:51.528Z,72.93
2023-05-15T09:52:20.002Z,72.53
2023-05-15T09:54:50.270Z,72.62
2023-05-15T09:57:23.456Z,71.99
2023-05-15T09:59:51.469Z,72.05
2023-05-15T10:02:32.174Z,72.46
2023-05-15T10:05:00.559Z,72.13
2023-05-15T10:07:29.338Z,71.97
2023-05-15T10:09:57.416Z,71.60
2023-05-15T10:12:26.693Z,71.36
2023-05-15T10:14:57.013Z,71.51
2023-05-15T10:17:25.064Z,71.21
2023-05-15T10:19:58.096Z,71.17
2023-05-15T10:22:29.984Z,70.47
2023-05-15T10:25:03.763Z,71.38
2023-05-15T10:27:34.200Z,71.27
2023-05-15T10:30:03.969Z,70.93
2023-05-15T10:32:35.000Z,70.60
2023-05-15T10:35:04.665Z,70.21
2023-05-15T10:37:33.724Z,69.96
2023-05-15T10:40:03.234Z,70.21
2023-05-15T10:42:32.019Z,69.86
2023-05-15T10:45:02.607Z,69.36
2023-05-15T10:47:31.634Z,69.23
2023-05-15T10:49:59.983Z,69.37
2023-05-15T10:52:29.263Z,68.40
2023-05-15T10:54:57.235Z,67.73
2023-05-15T10:57:25.171Z,67.30
2023-05-15T10:59:53.169Z,67.19
2023-05-15T11:02:23.427Z,67.51
2023-05-15T11:04:56.703Z,67.33
2023-05-15T11:07:25.710Z,66.65
2023-05-15T11:09:56.032Z,65.96
2023-05-15T11:12:24.682Z,65.34
2023-05-15T11:15:20.085Z,65.43
2023-05-15T11:18:03.706Z,65.24
2023-05-15T11:20:37.182Z,64.42
2023-05-15T11:23:05.207Z,63.86
2023-05-15T11:25:36.194Z,64.33
2023-05-15T11:28:05.485Z,65.57
2023-05-15T11:30:38.709Z,65.91
2023-05-15T11:33:09.781Z,66.54
2023-05-15T11:35:42.127Z,66.70
2023-05-15T11:38:15.868Z,67.11
2023-05-15T11:40:49.905Z,67.79
2023-05-15T11:43:19.841Z,68.50
2023-05-15T11:45:49.719Z,68.63
2023-05-15T11:48:18.780Z,68.06
2023-05-15T11:50:47.485Z,66.39
2023-05-15T11:53:16.660Z,65.28
2023-05-15T11:55:45.896Z,64.09
2023-05-15T11:58:16.672Z,64.30
2023-05-15T12:00:46.159Z,64.37
2023-05-15T12:03:18.028Z,64.67
2023-05-15T12:05:57.566Z,64.28
2023-05-15T12:08:26.717Z,64.31
2023-05-15T12:10:54.571Z,64.31
2023-05-15T12:13:23.834Z,63.97
2023-05-15T12:15:51.840Z,63.61
2023-05-15T12:18:19.838Z,62.94
2023-05-15T12:20:48.263Z,62.37
2023-05-15T12:23:17.775Z,61.52
2023-05-15T12:25:48.130Z,60.84
2023-05-15T12:28:16.511Z,60.54
2023-05-15T12:30:46.250Z,59.65
2023-05-15T12:33:15.035Z,60.11
2023-05-15T12:35:44.690Z,59.50
2023-05-15T12:38:16.610Z,59.43
2023-05-15T12:40:45.472Z,59.78
2023-05-15T12:43:14.557Z,59.43
2023-05-15T12:45:43.032Z,59.33
2023-05-15T12:48:16.200Z,58.50
2023-05-15T12:50:46.906Z,57.95
2023-05-15T12:53:16.150Z,58.02
2023-05-15T12:55:46.434Z,58.23
2023-05-15T12:58:18.574Z,57.96
2023-05-15T13:00:48.013Z,57.42
2023-05-15T13:03:21.100Z,56.08
2023-05-15T13:05:49.294Z,56.02
2023-05-15T13:08:18.773Z,56.94
2023-05-15T13:10:48.432Z,56.83
2023-05-15T13:13:17.673Z,56.05
2023-05-15T13:15:46.387Z,55.96
2023-05-15T13:18:17.557Z,56.18
2023-05-15T13:20:46.829Z,56.10
2023-05-15T13:23:17.084Z,54.68
2023-05-15T13:25:45.284Z,54.81
2023-05-15T13:28:14.142Z,55.16
2023-05-15T13:30:42.898Z,55.29
2023-05-15T13:33:12.627Z,55.73
2023-05-15T13:35:43.033Z,56.05
2023-05-15T13:38:12.040Z,56.30
2023-05-15T13:40:40.395Z,56.60
2023-05-15T13:43:08.345Z,57.08
2023-05-15T13:45:36.428Z,57.69
2023-05-15T13:48:04.855Z,58.42
2023-05-15T13:50:32.782Z,58.34
2023-05-15T13:53:02.176Z,57.86
2023-05-15T13:55:30.186Z,57.84
2023-05-15T13:57:58.369Z,57.88
2023-05-15T14:00:26.543Z,57.86
2023-05-15T14:02:54.644Z,58.62
2023-05-15T14:05:22.534Z,58.09
2023-05-15T14:07:50.556Z,57.71
2023-05-15T14:10:19.879Z,57.68
2023-05-15T14:12:47.699Z,57.78
2023-05-15T14:15:15.765Z,57.98
2023-05-15T14:17:44.153Z,56.38
2023-05-15T14:20:13.047Z,55.21
2023-05-15T14:22:41.646Z,55.35
2023-05-15T14:25:10.476Z,54.45
2023-05-15T14:27:39.833Z,54.47
2023-05-15T14:30:08.956Z,54.35
2023-05-15T14:32:36.862Z,54.72
2023-05-15T14:35:05.535Z,54.95
2023-05-15T14:37:33.511Z,55.84
2023-05-15T14:40:01.486Z,56.28
2023-05-15T14:42:29.540Z,56.91
2023-05-15T14:44:58.845Z,57.37
2023-05-15T14:47:28.392Z,57.95
2023-05-15T14:49:56.558Z,58.49
2023-05-15T14:52:24.454Z,58.81
2023-05-15T14:55:04.989Z,59.53
2023-05-15T14:57:36.953Z,59.31
2023-05-15T15:00:08.303Z,59.14
2023-05-15T15:02:36.324Z,59.01
2023-05-15T15:05:05.308Z,58.09
2023-05-15T15:08:01.498Z,56.75
2023-05-15T15:10:29.728Z,55.00
2023-05-15T15:12:58.091Z,54.10
2023-05-15T15:15:26.642Z,53.68
2023-05-15T15:17:54.639Z,53.65
2023-05-15T15:20:23.112Z,52.45
2023-05-15T15:22:51.110Z,52.15
2023-05-15T15:25:21.510Z,51.02
2023-05-15T15:27:50.542Z,50.66
2023-05-15T15:30:18.950Z,49.61
2023-05-15T15:32:47.081Z,49.31
2023-05-15T15:35:15.009Z,49.20
2023-05-15T15:37:42.920Z,49.23
2023-05-15T15:40:11.921Z,49.24
2023-05-15T15:42:41.244Z,49.57
2023-05-15T15:45:09.681Z,49.48
2023-05-15T15:47:37.650Z,48.90
2023-05-15T15:50:06.238Z,48.54
2023-05-15T15:52:34.194Z,48.50
2023-05-15T15:55:02.092Z,48.60
2023-05-15T15:57:31.197Z,49.47
2023-05-15T16:00:00.480Z,49.78
2023-05-15T16:02:29.363Z,50.53
2023-05-15T16:04:57.294Z,51.21
2023-05-15T16:07:25.220Z,52.18
2023-05-15T16:10:00.244Z,52.60
2023-05-15T16:12:31.951Z,53.94
2023-05-15T16:15:17.503Z,54.33
2023-05-15T16:17:52.710Z,55.01
2023-05-15T16:20:21.906Z,55.66
2023-05-15T16:22:50.066Z,56.08
2023-05-15T16:25:18.109Z,56.58
2023-05-15T16:27:48.648Z,56.61
2023-05-15T16:30:18.800Z,56.82
2023-05-15T16:32:48.430Z,56.93
2023-05-15T16:35:16.656Z,57.10
2023-05-15T16:37:44.549Z,56.83
2023-05-15T16:40:13.344Z,56.71
2023-05-15T16:42:41.456Z,56.58
2023-05-15T16:45:10.085Z,56.40
2023-05-15T16:47:41.175Z,56.12
2023-05-15T16:50:10.041Z,56.16
2023-05-15T16:52:39.076Z,56.02
2023-05-15T16:55:07.897Z,56.03
2023-05-15T16:57:36.054Z,55.90
2023-05-15T17:00:04.457Z,55.97
2023-05-15T17:02:33.053Z,56.20
2023-05-15T17:05:03.224Z,56.50
2023-05-15T17:07:31.203Z,57.22
2023-05-15T17:09:59.160Z,57.17
2023-05-15T17:12:27.078Z,57.02
2023-05-15T17:14:54.969Z,56.87
2023-05-15T17:17:23.271Z,56.67
2023-05-15T17:19:51.283Z,57.05
2023-05-15T17:22:20.922Z,56.64
2023-05-15T17:24:51.727Z,56.91
2023-05-15T17:27:20.741Z,57.23
2023-05-15T17:29:48.871Z,57.11
2023-05-15T17:32:17.394Z,57.44
2023-05-15T17:34:45.945Z,57.80
2023-05-15T17:37:14.592Z,57.95
2023-05-15T17:39:43.971Z,58.50
2023-05-15T17:42:11.803Z,58.90
2023-05-15T17:44:39.706Z,59.47
2023-05-15T17:47:08.570Z,59.42
2023-05-15T17:49:36.710Z,59.90
2023-05-15T17:52:04.888Z,59.88
2023-05-15T17:54:32.845Z,60.30
2023-05-15T17:57:02.278Z,60.09
2023-05-15T17:59:30.981Z,60.28
2023-05-15T18:01:59.105Z,60.45
2023-05-15T18:04:27.279Z,60.32
2023-05-15T18:06:55.133Z,60.26
2023-05-15T18:09:24.320Z,60.92
2023-05-15T18:11:52.713Z,60.95
2023-05-15T18:14:22.065Z,61.32
2023-05-15T18:16:49.993Z,61.25
2023-05-15T18:19:18.155Z,61.92
2023-05-15T18:21:46.284Z,62.18
2023-05-15T18:24:14.174Z,62.14
2023-05-15T18:26:42.110Z,61.89
2023-05-15T18:29:10.051Z,62.45
2023-05-15T18:31:39.460Z,62.42
2023-05-15T18:34:07.538Z,62.59
2023-05-15T18:36:35.772Z,63.20
2023-05-15T18:39:03.724Z,63.27
2023-05-15T18:41:31.876Z,63.60
2023-05-15T18:43:59.738Z,63.79
2023-05-15T18:46:28.413Z,63.87
2023-05-15T18:48:57.844Z,64.15
2023-05-15T18:51:25.950Z,64.45
2023-05-15T18:53:53.826Z,64.48
2023-05-15T18:56:22.232Z,64.85
2023-05-15T18:58:50.417Z,64.79
2023-05-15T19:01:18.437Z,64.90
2023-05-15T19:03:46.415Z,65.02
2023-05-15T19:06:19.702Z,65.29
2023-05-15T19:08:48.225Z,65.88
2023-05-15T19:11:16.104Z,66.19
2023-05-15T19:13:44.120Z,66.29
2023-05-15T19:16:12.442Z,66.78
2023-05-15T19:18:40.840Z,67.30
2023-05-15T19:21:08.802Z,67.33
2023-05-15T19:23:38.312Z,67.68
2023-05-15T19:26:06.266Z,68.27
2023-05-15T19:28:34.520Z,67.88
2023-05-15T19:31:04.267Z,68.06
2023-05-15T19:33:32.184Z,68.38
2023-05-15T19:36:00.097Z,68.53
2023-05-15T19:38:28.138Z,68.60
2023-05-15T19:40:57.442Z,69.21
2023-05-15T19:43:25.509Z,69.36
2023-05-15T19:45:53.444Z,69.31
2023-05-15T19:48:21.421Z,69.23
2023-05-15T19:50:49.308Z,69.63
2023-05-15T19:53:17.209Z,69.94
2023-05-15T19:55:45.185Z,70.18
2023-05-15T19:58:14.606Z,69.85
2023-05-15T20:00:42.505Z,69.91
2023-05-15T20:03:10.432Z,70.16
2023-05-15T20:05:40.727Z,70.29
2023-05-15T20:08:08.745Z,70.59
2023-05-15T20:10:36.620Z,70.41
2023-05-15T20:13:04.692Z,70.25
2023-05-15T20:15:35.193Z,70.75
2023-05-15T20:18:03.167Z,71.88
2023-05-15T20:20:31.321Z,72.12
2023-05-15T20:22:59.447Z,72.63
2023-05-15T20:25:28.923Z,72.30
2023-05-15T20:27:58.660Z,72.46
2023-05-15T20:30:28.586Z,72.45
2023-05-15T20:32:58.167Z,72.27
2023-05-15T20:35:26.780Z,72.23
2023-05-15T20:37:56.294Z,72.04
2023-05-15T20:40:27.003Z,71.55
2023-05-15T20:42:55.656Z,72.14
2023-05-15T20:45:24.262Z,72.33
2023-05-15T20:47:52.210Z,72.40
2023-05-15T20:50:21.739Z,72.75
2023-05-15T20:52:49.686Z,72.79
2023-05-15T20:55:20.114Z,72.33
2023-05-15T20:57:49.277Z,72.77
2023-05-15T21:00:18.443Z,73.20
2023-05-15T21:02:47.429Z,73.77
2023-05-15T21:05:15.402Z,73.54
2023-05-15T21:07:44.873Z,73.60
2023-05-15T21:10:12.917Z,73.32
2023-05-15T21:12:42.123Z,73.54
2023-05-15T21:15:11.140Z,73.26
2023-05-15T21:17:39.182Z,72.96
2023-05-15T21:20:08.439Z,73.11
2023-05-15T21:22:36.619Z,72.50
2023-05-15T21:25:06.737Z,72.44
2023-05-15T21:27:35.473Z,72.96
2023-05-15T21:30:03.926Z,72.90
2023-05-15T21:32:32.105Z,73.25
2023-05-15T21:35:00.100Z,73.55
2023-05-15T21:37:28.126Z,73.39
2023-05-15T21:39:56.057Z,73.62
2023-05-15T21:42:26.412Z,73.50
2023-05-15T21:44:54.457Z,73.42
2023-05-15T21:47:22.480Z,73.23
2023-05-15T21:49:50.610Z,73.13
2023-05-15T21:52:18.494Z,73.57
2023-05-15T21:54:46.664Z,73.81
2023-05-15T21:57:14.596Z,73.98
2023-05-15T21:59:43.912Z,74.12
2023-05-15T22:02:11.951Z,73.83
2023-05-15T22:04:39.901Z,73.94
2023-05-15T22:07:07.810Z,73.84
2023-05-15T22:09:35.742Z,73.96
2023-05-15T22:12:03.660Z,73.98
2023-05-15T22:14:31.579Z,73.68
2023-05-15T22:17:01.529Z,73.80
2023-05-15T22:19:33.533Z,73.92
2023-05-15T22:22:01.967Z,73.71
2023-05-15T22:24:30.098Z,73.92
2023-05-15T22:26:58.301Z,74.06
2023-05-15T22:29:26.600Z,73.92
2023-05-15T22:31:54.567Z,73.68
2023-05-15T22:34:25.275Z,73.51
2023-05-15T22:39:22.127Z,73.97
2023-05-15T22:41:50.567Z,74.00
2023-05-15T22:44:18.539Z,74.03
2023-05-15T22:46:46.583Z,74.30
2023-05-15T22:49:23.611Z,74.43
2023-05-15T22:51:55.428Z,74.21
2023-05-15T22:54:23.630Z,73.83
2023-05-15T22:56:52.652Z,74.18
2023-05-15T22:59:21.216Z,73.61
2023-05-15T23:01:50.402Z,74.17
2023-05-15T23:04:18.567Z,74.41
2023-05-15T23:06:46.643Z,74.27
2023-05-15T23:09:15.983Z,74.42
2023-05-15T23:11:43.821Z,75.59
2023-05-15T23:14:11.970Z,75.71
2023-05-15T23:16:39.868Z,75.62
2023-05-15T23:19:07.800Z,75.86
2023-05-15T23:21:36.068Z,76.28
2023-05-15T23:24:04.099Z,75.59
2023-05-15T23:26:33.351Z,75.48
2023-05-15T23:29:01.255Z,74.84
2023-05-15T23:31:29.212Z,75.03
2023-05-15T23:33:57.175Z,75.10
2023-05-15T23:36:24.985Z,75.06
2023-05-15T23:38:52.912Z,75.00
2023-05-15T23:41:21.880Z,74.10
2023-05-15T23:43:51.174Z,74.07
2023-05-15T23:46:19.164Z,74.50
2023-05-15T23:48:47.004Z,74.82
2023-05-15T23:51:14.862Z,74.76
2023-05-15T23:53:42.786Z,74.70
2023-05-15T23:56:10.650Z,75.58
2023-05-15T23:58:38.583Z,76.26
